sensor_id;sensor_type;location;lat;lon;timestamp;pressure;altitude;pressure_sealevel;temperature;humidity
49645;BME280;36494;50.730;-1.932;2024-02-28T00:01:53;101513.91;;;8.89;100.00
49645;BME280;36494;50.730;-1.932;2024-02-28T00:04:19;101517.60;;;8.96;100.00
49645;BME280;36494;50.730;-1.932;2024-02-28T00:06:45;101516.38;;;8.96;100.00
49645;BME280;36494;50.730;-1.932;2024-02-28T00:09:12;101514.76;;;8.92;100.00
49645;BME280;36494;50.730;-1.932;2024-02-28T00:11:36;101512.93;;;8.93;100.00
49645;BME280;36494;50.730;-1.932;2024-02-28T00:14:01;101511.09;;;8.99;100.00
49645;BME280;36494;50.730;-1.932;2024-02-28T00:16:27;101511.41;;;8.98;100.00
49645;BME280;36494;50.730;-1.932;2024-02-28T00:18:52;101512.75;;;8.90;100.00
49645;BME280;36494;50.730;-1.932;2024-02-28T00:21:21;101513.54;;;8.94;100.00
49645;BME280;36494;50.730;-1.932;2024-02-28T00:23:43;101513.73;;;8.85;100.00
49645;BME280;36494;50.730;-1.932;2024-02-28T00:26:09;101519.03;;;8.90;100.00
49645;BME280;36494;50.730;-1.932;2024-02-28T00:28:34;101523.81;;;8.80;100.00
49645;BME280;36494;50.730;-1.932;2024-02-28T00:31:01;101526.01;;;8.85;100.00
49645;BME280;36494;50.730;-1.932;2024-02-28T00:33:27;101525.36;;;8.79;100.00
49645;BME280;36494;50.730;-1.932;2024-02-28T00:35:52;101522.23;;;8.84;100.00
49645;BME280;36494;50.730;-1.932;2024-02-28T00:38:18;101520.63;;;8.87;100.00
49645;BME280;36494;50.730;-1.932;2024-02-28T00:40:43;101515.40;;;8.86;100.00
49645;BME280;36494;50.730;-1.932;2024-02-28T00:43:09;101510.17;;;8.86;100.00
49645;BME280;36494;50.730;-1.932;2024-02-28T00:45:34;101508.24;;;8.80;100.00
49645;BME280;36494;50.730;-1.932;2024-02-28T00:48:00;101508.69;;;8.81;100.00
49645;BME280;36494;50.730;-1.932;2024-02-28T00:50:26;101505.21;;;8.76;100.00
49645;BME280;36494;50.730;-1.932;2024-02-28T00:52:51;101500.06;;;8.80;100.00
49645;BME280;36494;50.730;-1.932;2024-02-28T00:55:18;101496.36;;;8.83;100.00
49645;BME280;36494;50.730;-1.932;2024-02-28T00:57:43;101491.81;;;8.82;100.00
49645;BME280;36494;50.730;-1.932;2024-02-28T01:00:10;101487.64;;;8.77;100.00
49645;BME280;36494;50.730;-1.932;2024-02-28T01:02:35;101488.36;;;8.75;100.00
49645;BME280;36494;50.730;-1.932;2024-02-28T01:05:00;101490.17;;;8.78;100.00
49645;BME280;36494;50.730;-1.932;2024-02-28T01:07:25;101497.44;;;8.81;100.00
49645;BME280;36494;50.730;-1.932;2024-02-28T01:09:51;101505.44;;;8.79;100.00
49645;BME280;36494;50.730;-1.932;2024-02-28T01:12:17;101511.28;;;8.80;100.00
49645;BME280;36494;50.730;-1.932;2024-02-28T01:14:42;101509.16;;;8.81;100.00
49645;BME280;36494;50.730;-1.932;2024-02-28T01:17:08;101508.64;;;8.80;100.00
49645;BME280;36494;50.730;-1.932;2024-02-28T01:19:33;101504.60;;;8.79;100.00
49645;BME280;36494;50.730;-1.932;2024-02-28T01:21:59;101505.38;;;8.76;100.00
49645;BME280;36494;50.730;-1.932;2024-02-28T01:24:25;101512.64;;;8.75;100.00
49645;BME280;36494;50.730;-1.932;2024-02-28T01:26:51;101509.56;;;8.76;100.00
49645;BME280;36494;50.730;-1.932;2024-02-28T01:29:16;101512.60;;;8.68;100.00
49645;BME280;36494;50.730;-1.932;2024-02-28T01:31:42;101507.37;;;8.75;100.00
49645;BME280;36494;50.730;-1.932;2024-02-28T01:34:09;101509.01;;;8.70;100.00
49645;BME280;36494;50.730;-1.932;2024-02-28T01:36:33;101513.09;;;8.68;100.00
49645;BME280;36494;50.730;-1.932;2024-02-28T01:38:58;101513.36;;;8.75;100.00
49645;BME280;36494;50.730;-1.932;2024-02-28T01:41:24;101518.67;;;8.65;100.00
49645;BME280;36494;50.730;-1.932;2024-02-28T01:43:50;101524.89;;;8.67;100.00
49645;BME280;36494;50.730;-1.932;2024-02-28T01:46:23;101522.66;;;8.76;100.00
49645;BME280;36494;50.730;-1.932;2024-02-28T01:48:41;101515.40;;;8.74;100.00
49645;BME280;36494;50.730;-1.932;2024-02-28T01:51:07;101507.25;;;8.81;100.00
49645;BME280;36494;50.730;-1.932;2024-02-28T01:53:33;101500.48;;;8.83;100.00
49645;BME280;36494;50.730;-1.932;2024-02-28T01:55:59;101502.03;;;8.67;100.00
49645;BME280;36494;50.730;-1.932;2024-02-28T01:58:24;101501.84;;;8.78;100.00
49645;BME280;36494;50.730;-1.932;2024-02-28T02:00:49;101502.94;;;8.80;100.00
49645;BME280;36494;50.730;-1.932;2024-02-28T02:03:15;101504.64;;;8.83;100.00
49645;BME280;36494;50.730;-1.932;2024-02-28T02:05:42;101506.17;;;8.84;100.00
49645;BME280;36494;50.730;-1.932;2024-02-28T02:08:06;101504.73;;;8.82;100.00
49645;BME280;36494;50.730;-1.932;2024-02-28T02:10:33;101503.90;;;8.84;100.00
49645;BME280;36494;50.730;-1.932;2024-02-28T02:13:04;101497.42;;;8.82;100.00
49645;BME280;36494;50.730;-1.932;2024-02-28T02:15:23;101493.13;;;8.84;100.00
49645;BME280;36494;50.730;-1.932;2024-02-28T02:17:48;101487.24;;;8.82;100.00
49645;BME280;36494;50.730;-1.932;2024-02-28T02:20:14;101489.75;;;8.78;100.00
49645;BME280;36494;50.730;-1.932;2024-02-28T02:22:40;101489.60;;;8.80;100.00
49645;BME280;36494;50.730;-1.932;2024-02-28T02:25:06;101487.67;;;8.78;100.00
49645;BME280;36494;50.730;-1.932;2024-02-28T02:27:31;101488.56;;;8.74;100.00
49645;BME280;36494;50.730;-1.932;2024-02-28T02:29:57;101493.05;;;8.75;100.00
49645;BME280;36494;50.730;-1.932;2024-02-28T02:32:23;101490.88;;;8.77;100.00
49645;BME280;36494;50.730;-1.932;2024-02-28T02:34:51;101494.68;;;8.77;100.00
49645;BME280;36494;50.730;-1.932;2024-02-28T02:37:14;101495.71;;;8.77;100.00
49645;BME280;36494;50.730;-1.932;2024-02-28T02:39:39;101492.56;;;8.78;100.00
49645;BME280;36494;50.730;-1.932;2024-02-28T02:42:05;101485.31;;;8.74;100.00
49645;BME280;36494;50.730;-1.932;2024-02-28T02:44:31;101481.54;;;8.76;100.00
49645;BME280;36494;50.730;-1.932;2024-02-28T02:47:00;101476.46;;;8.76;100.00
49645;BME280;36494;50.730;-1.932;2024-02-28T02:49:22;101481.94;;;8.77;100.00
49645;BME280;36494;50.730;-1.932;2024-02-28T02:51:48;101482.99;;;8.74;100.00
49645;BME280;36494;50.730;-1.932;2024-02-28T02:54:14;101482.33;;;8.75;100.00
49645;BME280;36494;50.730;-1.932;2024-02-28T02:56:41;101479.32;;;8.70;100.00
49645;BME280;36494;50.730;-1.932;2024-02-28T02:59:05;101478.35;;;8.72;100.00
49645;BME280;36494;50.730;-1.932;2024-02-28T03:01:30;101477.46;;;8.72;100.00
49645;BME280;36494;50.730;-1.932;2024-02-28T03:03:56;101479.43;;;8.65;100.00
49645;BME280;36494;50.730;-1.932;2024-02-28T03:06:22;101480.54;;;8.65;100.00
49645;BME280;36494;50.730;-1.932;2024-02-28T03:08:47;101479.29;;;8.65;100.00
49645;BME280;36494;50.730;-1.932;2024-02-28T03:11:16;101480.99;;;8.65;100.00
49645;BME280;36494;50.730;-1.932;2024-02-28T03:13:39;101477.98;;;8.64;100.00
49645;BME280;36494;50.730;-1.932;2024-02-28T03:16:06;101477.12;;;8.57;100.00
49645;BME280;36494;50.730;-1.932;2024-02-28T03:18:31;101483.06;;;8.60;100.00
49645;BME280;36494;50.730;-1.932;2024-02-28T03:20:56;101485.31;;;8.60;100.00
49645;BME280;36494;50.730;-1.932;2024-02-28T03:23:25;101486.46;;;8.58;100.00
49645;BME280;36494;50.730;-1.932;2024-02-28T03:25:47;101482.36;;;8.55;100.00
49645;BME280;36494;50.730;-1.932;2024-02-28T03:28:13;101471.25;;;8.54;100.00
49645;BME280;36494;50.730;-1.932;2024-02-28T03:30:38;101471.08;;;8.48;100.00
49645;BME280;36494;50.730;-1.932;2024-02-28T03:33:04;101467.89;;;8.51;100.00
49645;BME280;36494;50.730;-1.932;2024-02-28T03:35:32;101466.74;;;8.48;100.00
49645;BME280;36494;50.730;-1.932;2024-02-28T03:37:55;101464.75;;;8.42;100.00
49645;BME280;36494;50.730;-1.932;2024-02-28T03:40:21;101457.89;;;8.44;100.00
49645;BME280;36494;50.730;-1.932;2024-02-28T03:42:47;101460.22;;;8.39;100.00
49645;BME280;36494;50.730;-1.932;2024-02-28T03:45:13;101457.37;;;8.37;100.00
49645;BME280;36494;50.730;-1.932;2024-02-28T03:47:40;101457.34;;;8.33;100.00
49645;BME280;36494;50.730;-1.932;2024-02-28T03:50:05;101458.86;;;8.31;100.00
49645;BME280;36494;50.730;-1.932;2024-02-28T03:52:30;101460.81;;;8.28;100.00
49645;BME280;36494;50.730;-1.932;2024-02-28T03:54:55;101461.72;;;8.30;100.00
49645;BME280;36494;50.730;-1.932;2024-02-28T03:57:21;101467.62;;;8.30;100.00
49645;BME280;36494;50.730;-1.932;2024-02-28T03:59:46;101474.08;;;8.27;100.00
49645;BME280;36494;50.730;-1.932;2024-02-28T04:02:12;101477.64;;;8.21;100.00
49645;BME280;36494;50.730;-1.932;2024-02-28T04:04:37;101481.27;;;8.22;100.00
49645;BME280;36494;50.730;-1.932;2024-02-28T04:07:04;101480.87;;;8.23;100.00
49645;BME280;36494;50.730;-1.932;2024-02-28T04:09:29;101479.22;;;8.22;100.00
49645;BME280;36494;50.730;-1.932;2024-02-28T04:11:58;101478.20;;;8.21;100.00
49645;BME280;36494;50.730;-1.932;2024-02-28T04:14:21;101481.17;;;8.13;100.00
49645;BME280;36494;50.730;-1.932;2024-02-28T04:16:46;101479.71;;;8.18;100.00
49645;BME280;36494;50.730;-1.932;2024-02-28T04:19:12;101477.85;;;8.16;100.00
49645;BME280;36494;50.730;-1.932;2024-02-28T04:21:37;101481.37;;;8.14;100.00
49645;BME280;36494;50.730;-1.932;2024-02-28T04:24:06;101480.37;;;8.16;100.00
49645;BME280;36494;50.730;-1.932;2024-02-28T04:26:29;101478.47;;;8.16;100.00
49645;BME280;36494;50.730;-1.932;2024-02-28T04:28:54;101479.48;;;8.13;100.00
49645;BME280;36494;50.730;-1.932;2024-02-28T04:31:21;101481.82;;;8.14;100.00
49645;BME280;36494;50.730;-1.932;2024-02-28T04:33:46;101477.18;;;8.09;100.00
49645;BME280;36494;50.730;-1.932;2024-02-28T04:36:12;101472.11;;;8.08;100.00
49645;BME280;36494;50.730;-1.932;2024-02-28T04:38:37;101469.88;;;8.11;100.00
49645;BME280;36494;50.730;-1.932;2024-02-28T04:41:03;101466.81;;;8.12;100.00
49645;BME280;36494;50.730;-1.932;2024-02-28T04:43:29;101463.27;;;8.07;100.00
49645;BME280;36494;50.730;-1.932;2024-02-28T04:45:54;101461.01;;;8.03;100.00
49645;BME280;36494;50.730;-1.932;2024-02-28T04:48:20;101455.94;;;8.01;100.00
49645;BME280;36494;50.730;-1.932;2024-02-28T04:50:45;101457.65;;;8.00;100.00
49645;BME280;36494;50.730;-1.932;2024-02-28T04:53:11;101462.61;;;7.97;100.00
49645;BME280;36494;50.730;-1.932;2024-02-28T04:55:37;101463.96;;;7.91;100.00
49645;BME280;36494;50.730;-1.932;2024-02-28T04:58:03;101465.01;;;7.94;100.00
49645;BME280;36494;50.730;-1.932;2024-02-28T05:00:29;101464.62;;;7.94;100.00
49645;BME280;36494;50.730;-1.932;2024-02-28T05:02:54;101459.10;;;7.95;100.00
49645;BME280;36494;50.730;-1.932;2024-02-28T05:05:20;101450.15;;;7.98;100.00
49645;BME280;36494;50.730;-1.932;2024-02-28T05:07:45;101448.79;;;7.84;100.00
49645;BME280;36494;50.730;-1.932;2024-02-28T05:10:11;101443.29;;;7.90;100.00
49645;BME280;36494;50.730;-1.932;2024-02-28T05:12:36;101434.48;;;7.93;100.00
49645;BME280;36494;50.730;-1.932;2024-02-28T05:15:02;101429.55;;;7.94;100.00
49645;BME280;36494;50.730;-1.932;2024-02-28T05:17:27;101427.40;;;7.95;100.00
49645;BME280;36494;50.730;-1.932;2024-02-28T05:19:53;101425.48;;;7.93;100.00
49645;BME280;36494;50.730;-1.932;2024-02-28T05:22:19;101426.28;;;7.90;100.00
49645;BME280;36494;50.730;-1.932;2024-02-28T05:24:48;101432.34;;;7.84;100.00
49645;BME280;36494;50.730;-1.932;2024-02-28T05:27:11;101435.47;;;7.83;100.00
49645;BME280;36494;50.730;-1.932;2024-02-28T05:29:37;101440.01;;;7.87;100.00
49645;BME280;36494;50.730;-1.932;2024-02-28T05:32:02;101438.82;;;7.80;100.00
49645;BME280;36494;50.730;-1.932;2024-02-28T05:34:28;101434.54;;;7.80;100.00
49645;BME280;36494;50.730;-1.932;2024-02-28T05:36:55;101429.59;;;7.80;100.00
49645;BME280;36494;50.730;-1.932;2024-02-28T05:39:19;101427.52;;;7.81;100.00
49645;BME280;36494;50.730;-1.932;2024-02-28T05:41:44;101428.97;;;7.80;100.00
49645;BME280;36494;50.730;-1.932;2024-02-28T05:44:10;101428.99;;;7.75;100.00
49645;BME280;36494;50.730;-1.932;2024-02-28T05:46:35;101425.62;;;7.69;100.00
49645;BME280;36494;50.730;-1.932;2024-02-28T05:49:01;101423.83;;;7.76;100.00
49645;BME280;36494;50.730;-1.932;2024-02-28T05:51:26;101424.48;;;7.72;100.00
49645;BME280;36494;50.730;-1.932;2024-02-28T05:53:52;101426.00;;;7.69;100.00
49645;BME280;36494;50.730;-1.932;2024-02-28T05:56:17;101428.81;;;7.71;100.00
49645;BME280;36494;50.730;-1.932;2024-02-28T05:58:43;101426.61;;;7.63;100.00
49645;BME280;36494;50.730;-1.932;2024-02-28T06:01:10;101430.74;;;7.67;100.00
49645;BME280;36494;50.730;-1.932;2024-02-28T06:03:33;101425.91;;;7.67;100.00
49645;BME280;36494;50.730;-1.932;2024-02-28T06:05:58;101427.09;;;7.65;100.00
49645;BME280;36494;50.730;-1.932;2024-02-28T06:08:24;101430.05;;;7.61;100.00
49645;BME280;36494;50.730;-1.932;2024-02-28T06:10:51;101433.26;;;7.55;100.00
49645;BME280;36494;50.730;-1.932;2024-02-28T06:13:20;101425.69;;;7.61;100.00
49645;BME280;36494;50.730;-1.932;2024-02-28T06:15:42;101422.31;;;7.61;100.00
49645;BME280;36494;50.730;-1.932;2024-02-28T06:18:08;101426.74;;;7.60;100.00
49645;BME280;36494;50.730;-1.932;2024-02-28T06:20:33;101423.53;;;7.58;100.00
49645;BME280;36494;50.730;-1.932;2024-02-28T06:22:59;101419.58;;;7.58;100.00
49645;BME280;36494;50.730;-1.932;2024-02-28T06:25:28;101419.47;;;7.48;100.00
49645;BME280;36494;50.730;-1.932;2024-02-28T06:27:50;101419.32;;;7.54;100.00
49645;BME280;36494;50.730;-1.932;2024-02-28T06:30:16;101420.67;;;7.40;100.00
49645;BME280;36494;50.730;-1.932;2024-02-28T06:32:41;101424.38;;;7.43;100.00
49645;BME280;36494;50.730;-1.932;2024-02-28T06:35:08;101424.94;;;7.39;100.00
49645;BME280;36494;50.730;-1.932;2024-02-28T06:37:36;101427.54;;;7.42;100.00
49645;BME280;36494;50.730;-1.932;2024-02-28T06:39:59;101431.25;;;7.48;100.00
49645;BME280;36494;50.730;-1.932;2024-02-28T06:42:25;101434.81;;;7.46;100.00
49645;BME280;36494;50.730;-1.932;2024-02-28T06:44:50;101432.87;;;7.50;100.00
49645;BME280;36494;50.730;-1.932;2024-02-28T06:47:16;101427.53;;;7.45;100.00
49645;BME280;36494;50.730;-1.932;2024-02-28T06:49:41;101424.91;;;7.45;100.00
49645;BME280;36494;50.730;-1.932;2024-02-28T06:52:07;101427.21;;;7.43;100.00
49645;BME280;36494;50.730;-1.932;2024-02-28T06:54:32;101432.07;;;7.39;100.00
49645;BME280;36494;50.730;-1.932;2024-02-28T06:56:58;101438.67;;;7.42;100.00
49645;BME280;36494;50.730;-1.932;2024-02-28T06:59:23;101436.44;;;7.38;100.00
49645;BME280;36494;50.730;-1.932;2024-02-28T07:01:49;101436.06;;;7.45;100.00
49645;BME280;36494;50.730;-1.932;2024-02-28T07:04:14;101435.30;;;7.42;100.00
49645;BME280;36494;50.730;-1.932;2024-02-28T07:06:40;101438.95;;;7.44;100.00
49645;BME280;36494;50.730;-1.932;2024-02-28T07:09:07;101438.71;;;7.43;100.00
49645;BME280;36494;50.730;-1.932;2024-02-28T07:11:31;101431.65;;;7.46;100.00
49645;BME280;36494;50.730;-1.932;2024-02-28T07:14:00;101425.92;;;7.46;100.00
49645;BME280;36494;50.730;-1.932;2024-02-28T07:16:22;101421.46;;;7.39;100.00
49645;BME280;36494;50.730;-1.932;2024-02-28T07:18:47;101421.32;;;7.45;100.00
49645;BME280;36494;50.730;-1.932;2024-02-28T07:21:12;101421.83;;;7.46;100.00
49645;BME280;36494;50.730;-1.932;2024-02-28T07:23:39;101420.13;;;7.40;100.00
49645;BME280;36494;50.730;-1.932;2024-02-28T07:26:04;101422.93;;;7.44;100.00
49645;BME280;36494;50.730;-1.932;2024-02-28T07:28:28;101429.82;;;7.42;100.00
49645;BME280;36494;50.730;-1.932;2024-02-28T07:30:54;101430.86;;;7.45;100.00
49645;BME280;36494;50.730;-1.932;2024-02-28T07:33:19;101432.60;;;7.39;100.00
49645;BME280;36494;50.730;-1.932;2024-02-28T07:35:44;101433.60;;;7.42;100.00
49645;BME280;36494;50.730;-1.932;2024-02-28T07:38:09;101429.79;;;7.40;100.00
49645;BME280;36494;50.730;-1.932;2024-02-28T07:40:35;101430.83;;;7.48;100.00
49645;BME280;36494;50.730;-1.932;2024-02-28T07:43:01;101436.51;;;7.41;100.00
49645;BME280;36494;50.730;-1.932;2024-02-28T07:45:26;101433.30;;;7.48;100.00
49645;BME280;36494;50.730;-1.932;2024-02-28T07:47:51;101433.12;;;7.45;100.00
49645;BME280;36494;50.730;-1.932;2024-02-28T07:50:17;101431.43;;;7.44;100.00
49645;BME280;36494;50.730;-1.932;2024-02-28T07:52:42;101429.07;;;7.43;100.00
49645;BME280;36494;50.730;-1.932;2024-02-28T07:55:08;101430.53;;;7.44;100.00
49645;BME280;36494;50.730;-1.932;2024-02-28T07:57:34;101434.12;;;7.51;100.00
49645;BME280;36494;50.730;-1.932;2024-02-28T07:59:59;101428.98;;;7.52;100.00
49645;BME280;36494;50.730;-1.932;2024-02-28T08:02:25;101433.81;;;7.56;100.00
49645;BME280;36494;50.730;-1.932;2024-02-28T08:04:51;101438.67;;;7.51;100.00
49645;BME280;36494;50.730;-1.932;2024-02-28T08:07:17;101443.84;;;7.53;100.00
49645;BME280;36494;50.730;-1.932;2024-02-28T08:09:43;101449.55;;;7.56;100.00
49645;BME280;36494;50.730;-1.932;2024-02-28T08:12:08;101447.42;;;7.61;100.00
49645;BME280;36494;50.730;-1.932;2024-02-28T08:14:33;101445.30;;;7.65;100.00
49645;BME280;36494;50.730;-1.932;2024-02-28T08:16:59;101445.81;;;7.70;100.00
49645;BME280;36494;50.730;-1.932;2024-02-28T08:19:24;101449.35;;;7.71;100.00
49645;BME280;36494;50.730;-1.932;2024-02-28T08:21:50;101449.99;;;7.71;100.00
49645;BME280;36494;50.730;-1.932;2024-02-28T08:24:15;101456.47;;;7.79;100.00
49645;BME280;36494;50.730;-1.932;2024-02-28T08:26:41;101464.23;;;7.77;100.00
49645;BME280;36494;50.730;-1.932;2024-02-28T08:29:07;101466.62;;;7.86;100.00
49645;BME280;36494;50.730;-1.932;2024-02-28T08:31:33;101463.41;;;7.80;100.00
49645;BME280;36494;50.730;-1.932;2024-02-28T08:33:58;101464.55;;;7.90;100.00
49645;BME280;36494;50.730;-1.932;2024-02-28T08:36:24;101467.42;;;7.96;100.00
49645;BME280;36494;50.730;-1.932;2024-02-28T08:38:52;101466.12;;;8.02;100.00
49645;BME280;36494;50.730;-1.932;2024-02-28T08:41:15;101469.02;;;8.02;100.00
49645;BME280;36494;50.730;-1.932;2024-02-28T08:43:40;101471.38;;;8.06;100.00
49645;BME280;36494;50.730;-1.932;2024-02-28T08:46:06;101472.58;;;8.10;100.00
49645;BME280;36494;50.730;-1.932;2024-02-28T08:48:31;101472.02;;;8.15;100.00
49645;BME280;36494;50.730;-1.932;2024-02-28T08:51:00;101471.58;;;8.16;100.00
49645;BME280;36494;50.730;-1.932;2024-02-28T08:53:22;101466.67;;;8.17;100.00
49645;BME280;36494;50.730;-1.932;2024-02-28T08:55:47;101459.62;;;8.19;100.00
49645;BME280;36494;50.730;-1.932;2024-02-28T08:58:13;101458.24;;;8.29;100.00
49645;BME280;36494;50.730;-1.932;2024-02-28T09:00:40;101459.17;;;8.30;100.00
49645;BME280;36494;50.730;-1.932;2024-02-28T09:03:06;101459.08;;;8.37;100.00
49645;BME280;36494;50.730;-1.932;2024-02-28T09:05:31;101471.01;;;8.38;100.00
49645;BME280;36494;50.730;-1.932;2024-02-28T09:07:56;101474.35;;;8.41;100.00
49645;BME280;36494;50.730;-1.932;2024-02-28T09:10:22;101473.15;;;8.49;100.00
49645;BME280;36494;50.730;-1.932;2024-02-28T09:12:47;101469.55;;;8.55;100.00
49645;BME280;36494;50.730;-1.932;2024-02-28T09:15:14;101469.97;;;8.59;100.00
49645;BME280;36494;50.730;-1.932;2024-02-28T09:17:38;101472.19;;;8.65;100.00
49645;BME280;36494;50.730;-1.932;2024-02-28T09:20:04;101472.13;;;8.65;100.00
49645;BME280;36494;50.730;-1.932;2024-02-28T09:22:29;101474.75;;;8.68;100.00
49645;BME280;36494;50.730;-1.932;2024-02-28T09:24:54;101469.32;;;8.69;100.00
49645;BME280;36494;50.730;-1.932;2024-02-28T09:27:23;101462.13;;;8.75;100.00
49645;BME280;36494;50.730;-1.932;2024-02-28T09:29:45;101450.70;;;8.78;100.00
49645;BME280;36494;50.730;-1.932;2024-02-28T09:32:11;101438.53;;;8.80;100.00
49645;BME280;36494;50.730;-1.932;2024-02-28T09:34:37;101440.86;;;8.84;100.00
49645;BME280;36494;50.730;-1.932;2024-02-28T09:37:02;101441.46;;;8.85;100.00
49645;BME280;36494;50.730;-1.932;2024-02-28T09:39:28;101444.87;;;8.92;100.00
49645;BME280;36494;50.730;-1.932;2024-02-28T09:41:54;101449.57;;;8.95;100.00
49645;BME280;36494;50.730;-1.932;2024-02-28T09:44:20;101450.74;;;8.83;100.00
49645;BME280;36494;50.730;-1.932;2024-02-28T09:46:45;101447.88;;;8.93;100.00
49645;BME280;36494;50.730;-1.932;2024-02-28T09:49:10;101442.15;;;8.91;100.00
49645;BME280;36494;50.730;-1.932;2024-02-28T09:51:36;101436.43;;;8.84;100.00
49645;BME280;36494;50.730;-1.932;2024-02-28T09:54:01;101431.33;;;8.89;100.00
49645;BME280;36494;50.730;-1.932;2024-02-28T09:56:27;101435.35;;;8.99;100.00
49645;BME280;36494;50.730;-1.932;2024-02-28T09:58:51;101433.97;;;9.05;100.00
49645;BME280;36494;50.730;-1.932;2024-02-28T10:01:18;101437.23;;;9.02;100.00
49645;BME280;36494;50.730;-1.932;2024-02-28T10:03:44;101438.32;;;9.04;100.00
49645;BME280;36494;50.730;-1.932;2024-02-28T10:06:08;101437.47;;;9.07;100.00
49645;BME280;36494;50.730;-1.932;2024-02-28T10:08:33;101435.12;;;9.13;100.00
49645;BME280;36494;50.730;-1.932;2024-02-28T10:10:58;101433.36;;;9.20;100.00
49645;BME280;36494;50.730;-1.932;2024-02-28T10:13:24;101432.03;;;9.15;100.00
49645;BME280;36494;50.730;-1.932;2024-02-28T10:15:53;101429.38;;;9.20;100.00
49645;BME280;36494;50.730;-1.932;2024-02-28T10:18:15;101426.96;;;9.22;100.00
49645;BME280;36494;50.730;-1.932;2024-02-28T10:20:40;101429.44;;;9.28;100.00
49645;BME280;36494;50.730;-1.932;2024-02-28T10:23:06;101426.72;;;9.32;100.00
49645;BME280;36494;50.730;-1.932;2024-02-28T10:25:31;101424.56;;;9.32;100.00
49645;BME280;36494;50.730;-1.932;2024-02-28T10:28:00;101422.22;;;9.39;100.00
49645;BME280;36494;50.730;-1.932;2024-02-28T10:30:22;101414.89;;;9.29;100.00
49645;BME280;36494;50.730;-1.932;2024-02-28T10:32:49;101406.55;;;9.25;100.00
49645;BME280;36494;50.730;-1.932;2024-02-28T10:35:16;101406.77;;;9.27;100.00
49645;BME280;36494;50.730;-1.932;2024-02-28T10:37:38;101404.25;;;9.19;100.00
49645;BME280;36494;50.730;-1.932;2024-02-28T10:40:10;101400.49;;;9.22;100.00
49645;BME280;36494;50.730;-1.932;2024-02-28T10:42:31;101402.22;;;9.21;100.00
49645;BME280;36494;50.730;-1.932;2024-02-28T10:44:57;101400.55;;;9.28;100.00
49645;BME280;36494;50.730;-1.932;2024-02-28T10:47:22;101400.98;;;9.31;100.00
49645;BME280;36494;50.730;-1.932;2024-02-28T10:49:47;101398.44;;;9.21;100.00
49645;BME280;36494;50.730;-1.932;2024-02-28T10:52:14;101398.73;;;9.28;100.00
49645;BME280;36494;50.730;-1.932;2024-02-28T10:54:40;101396.51;;;9.34;100.00
49645;BME280;36494;50.730;-1.932;2024-02-28T10:57:05;101394.96;;;9.36;100.00
49645;BME280;36494;50.730;-1.932;2024-02-28T10:59:31;101392.83;;;9.31;100.00
49645;BME280;36494;50.730;-1.932;2024-02-28T11:01:55;101398.94;;;9.36;100.00
49645;BME280;36494;50.730;-1.932;2024-02-28T11:04:24;101396.14;;;9.32;100.00
49645;BME280;36494;50.730;-1.932;2024-02-28T11:06:48;101393.93;;;9.27;100.00
49645;BME280;36494;50.730;-1.932;2024-02-28T11:09:11;101389.91;;;9.34;100.00
49645;BME280;36494;50.730;-1.932;2024-02-28T11:11:37;101390.75;;;9.33;100.00
49645;BME280;36494;50.730;-1.932;2024-02-28T11:14:03;101397.70;;;9.38;100.00
49645;BME280;36494;50.730;-1.932;2024-02-28T11:16:30;101395.45;;;9.35;100.00
49645;BME280;36494;50.730;-1.932;2024-02-28T11:18:54;101397.73;;;9.33;100.00
49645;BME280;36494;50.730;-1.932;2024-02-28T11:21:23;101396.31;;;9.31;100.00
49645;BME280;36494;50.730;-1.932;2024-02-28T11:23:46;101401.66;;;9.36;100.00
49645;BME280;36494;50.730;-1.932;2024-02-28T11:26:12;101403.89;;;9.25;100.00
49645;BME280;36494;50.730;-1.932;2024-02-28T11:28:38;101404.94;;;9.23;100.00
49645;BME280;36494;50.730;-1.932;2024-02-28T11:31:03;101402.19;;;9.29;100.00
49645;BME280;36494;50.730;-1.932;2024-02-28T11:33:29;101400.13;;;9.16;100.00
49645;BME280;36494;50.730;-1.932;2024-02-28T11:35:55;101404.16;;;9.24;100.00
49645;BME280;36494;50.730;-1.932;2024-02-28T11:38:19;101402.45;;;9.21;100.00
49645;BME280;36494;50.730;-1.932;2024-02-28T11:40:49;101402.05;;;9.23;100.00
49645;BME280;36494;50.730;-1.932;2024-02-28T11:43:10;101400.56;;;9.19;100.00
49645;BME280;36494;50.730;-1.932;2024-02-28T11:45:39;101398.96;;;9.27;100.00
49645;BME280;36494;50.730;-1.932;2024-02-28T11:48:02;101397.35;;;9.24;100.00
49645;BME280;36494;50.730;-1.932;2024-02-28T11:50:27;101394.76;;;9.23;100.00
49645;BME280;36494;50.730;-1.932;2024-02-28T11:52:52;101392.17;;;9.15;100.00
49645;BME280;36494;50.730;-1.932;2024-02-28T11:55:19;101390.79;;;9.21;100.00
49645;BME280;36494;50.730;-1.932;2024-02-28T11:57:43;101391.01;;;9.15;100.00
49645;BME280;36494;50.730;-1.932;2024-02-28T12:00:10;101384.31;;;9.11;100.00
49645;BME280;36494;50.730;-1.932;2024-02-28T12:02:35;101380.96;;;9.04;100.00
49645;BME280;36494;50.730;-1.932;2024-02-28T12:05:01;101381.03;;;9.07;100.00
49645;BME280;36494;50.730;-1.932;2024-02-28T12:07:26;101377.10;;;9.12;100.00
49645;BME280;36494;50.730;-1.932;2024-02-28T12:09:54;101374.35;;;9.08;100.00
49645;BME280;36494;50.730;-1.932;2024-02-28T12:12:18;101372.01;;;9.15;100.00
49645;BME280;36494;50.730;-1.932;2024-02-28T12:14:44;101369.39;;;9.14;100.00
49645;BME280;36494;50.730;-1.932;2024-02-28T12:17:11;101365.94;;;9.23;100.00
49645;BME280;36494;50.730;-1.932;2024-02-28T12:19:35;101361.60;;;9.27;100.00
49645;BME280;36494;50.730;-1.932;2024-02-28T12:22:00;101358.84;;;9.29;100.00
49645;BME280;36494;50.730;-1.932;2024-02-28T12:24:26;101357.48;;;9.30;100.00
49645;BME280;36494;50.730;-1.932;2024-02-28T12:26:52;101345.92;;;9.32;100.00
49645;BME280;36494;50.730;-1.932;2024-02-28T12:29:20;101344.26;;;9.29;100.00
49645;BME280;36494;50.730;-1.932;2024-02-28T12:31:42;101338.96;;;9.30;100.00